Time;durP1;ratioP1;P1;durP2;ratioP2;P2;SDS_P1;SDS_P2;PMS_P1;PMS_P2;Temp;Humidity;BMP_temperature;BMP_pressure;BME280_temperature;BME280_humidity;BME280_pressure;Samples;Min_cycle;Max_cycle;Signal;HPM_P1;HPM_P2
2022/09/19 00:01:20;;;;;;;;;0.00;0.00;;;;;;;;6188860;23;48293;-93
2022/09/19 00:03:50;;;;;;;;;0.00;0.00;;;;;;;;6190180;23;45374;-94
2022/09/19 00:06:15;;;;;;;;;0.00;0.00;;;;;;;;6190774;23;45209;-94
2022/09/19 00:08:43;;;;;;;;;0.00;0.00;;;;;;;;6189985;23;45503;-94
2022/09/19 00:11:09;;;;;;;;;0.00;0.00;;;;;;;;6189045;23;47523;-95
2022/09/19 00:13:35;;;;;;;;;0.00;0.00;;;;;;;;6188647;23;45322;-94
2022/09/19 00:16:01;;;;;;;;;0.67;0.67;;;;;;;;6189401;23;45449;-94
2022/09/19 00:18:27;;;;;;;;;0.00;0.00;;;;;;;;6188576;23;45415;-94
2022/09/19 00:20:53;;;;;;;;;0.00;0.00;;;;;;;;6182870;23;48152;-95
2022/09/19 00:26:07;;;;;;;;;0.00;0.00;;;;;;;;6183291;23;45330;-94
2022/09/19 00:28:32;;;;;;;;;0.00;0.00;;;;;;;;6180648;23;45517;-95
2022/09/19 00:30:59;;;;;;;;;0.00;0.00;;;;;;;;6180094;23;46884;-93
2022/09/19 00:33:28;;;;;;;;;0.00;0.00;;;;;;;;6179889;23;45772;-94
2022/09/19 00:35:54;;;;;;;;;0.00;0.00;;;;;;;;6180867;23;45321;-94
2022/09/19 00:38:23;;;;;;;;;0.00;0.00;;;;;;;;6181304;23;45440;-94
2022/09/19 00:40:48;;;;;;;;;0.00;0.00;;;;;;;;6181122;23;48561;-94
2022/09/19 00:43:15;;;;;;;;;0.00;0.00;;;;;;;;6182517;23;45199;-94
2022/09/19 00:45:40;;;;;;;;;0.00;0.00;;;;;;;;6180987;23;45440;-94
2022/09/19 00:48:05;;;;;;;;;0.00;0.00;;;;;;;;6180498;23;45450;-94
2022/09/19 00:50:30;;;;;;;;;0.00;0.00;;;;;;;;6180821;23;46952;-95
2022/09/19 00:53:00;;;;;;;;;0.00;0.00;;;;;;;;6179962;23;45382;-94
2022/09/19 00:55:27;;;;;;;;;0.00;0.00;;;;;;;;6180036;23;45414;-94
2022/09/19 00:57:57;;;;;;;;;0.00;0.00;;;;;;;;6180085;23;45300;-94
2022/09/19 01:00:23;;;;;;;;;0.00;0.00;;;;;;;;6179873;23;47299;-94
2022/09/19 01:02:48;;;;;;;;;0.00;0.00;;;;;;;;6179538;23;45699;-93
2022/09/19 01:05:16;;;;;;;;;0.00;0.00;;;;;;;;6180250;23;45403;-94
2022/09/19 01:08:12;;;;;;;;;0.00;0.00;;;;;;;;6180096;23;45271;-94
2022/09/19 01:10:40;;;;;;;;;0.00;0.00;;;;;;;;6180578;22;48196;-94
2022/09/19 01:13:09;;;;;;;;;0.00;0.00;;;;;;;;6179485;23;45549;-94
2022/09/19 01:15:58;;;;;;;;;0.00;0.00;;;;;;;;6180191;23;45506;-94
2022/09/19 01:18:29;;;;;;;;;0.00;0.00;;;;;;;;6181426;23;45306;-94
2022/09/19 01:24:00;;;;;;;;;0.00;0.00;;;;;;;;6182365;23;45444;-95
2022/09/19 01:26:40;;;;;;;;;0.00;0.00;;;;;;;;6183428;23;45284;-94
2022/09/19 01:29:23;;;;;;;;;0.00;0.00;;;;;;;;6185036;23;45409;-94
2022/09/19 01:31:51;;;;;;;;;0.00;0.00;;;;;;;;6190459;23;47079;-94
2022/09/19 01:34:30;;;;;;;;;0.00;0.00;;;;;;;;6191097;23;45374;-95
2022/09/19 01:37:12;;;;;;;;;0.00;0.00;;;;;;;;6191455;23;45764;-94
2022/09/19 01:39:39;;;;;;;;;0.00;0.00;;;;;;;;6191156;23;45532;-94
2022/09/19 01:42:04;;;;;;;;;0.00;0.00;;;;;;;;6191113;23;46944;-94
2022/09/19 01:44:30;;;;;;;;;0.00;0.00;;;;;;;;6190866;23;45366;-95
2022/09/19 01:47:13;;;;;;;;;0.00;0.00;;;;;;;;6190605;23;45244;-94
2022/09/19 01:49:38;;;;;;;;;0.00;0.00;;;;;;;;6185119;23;45525;-94
2022/09/19 01:52:18;;;;;;;;;0.00;0.00;;;;;;;;6180616;23;48273;-94
2022/09/19 01:55:05;;;;;;;;;0.00;0.00;;;;;;;;6181414;23;45399;-94
2022/09/19 01:57:33;;;;;;;;;0.00;0.00;;;;;;;;6186122;22;45504;-94
2022/09/19 02:00:05;;;;;;;;;0.00;0.00;;;;;;;;6180964;23;45422;-93
2022/09/19 02:02:34;;;;;;;;;0.00;0.00;;;;;;;;6181041;23;47152;-94
2022/09/19 02:05:13;;;;;;;;;0.00;0.00;;;;;;;;6181056;23;45299;-94
2022/09/19 02:07:51;;;;;;;;;0.00;0.00;;;;;;;;6181788;23;45325;-94
2022/09/19 02:10:23;;;;;;;;;0.00;0.00;;;;;;;;6181500;23;45313;-94
2022/09/19 02:12:52;;;;;;;;;0.00;0.00;;;;;;;;6180798;23;47809;-95
2022/09/19 02:15:21;;;;;;;;;0.00;0.00;;;;;;;;6180980;23;45459;-95
2022/09/19 02:17:51;;;;;;;;;0.00;0.00;;;;;;;;6181394;23;45373;-95
2022/09/19 02:20:36;;;;;;;;;0.00;0.00;;;;;;;;6181455;23;45510;-94
2022/09/19 02:23:09;;;;;;;;;0.00;0.00;;;;;;;;6179791;23;47072;-94
2022/09/19 02:25:34;;;;;;;;;0.00;0.00;;;;;;;;6181262;23;45342;-94
2022/09/19 02:28:04;;;;;;;;;0.00;0.00;;;;;;;;6181443;23;45440;-94
2022/09/19 02:30:29;;;;;;;;;0.00;0.00;;;;;;;;6180897;23;45416;-94
2022/09/19 02:32:54;;;;;;;;;0.00;0.00;;;;;;;;6181130;23;47565;-95
2022/09/19 02:35:24;;;;;;;;;0.00;0.00;;;;;;;;6181275;23;45922;-95
2022/09/19 02:37:57;;;;;;;;;0.00;0.00;;;;;;;;6181526;23;45382;-94
2022/09/19 02:40:31;;;;;;;;;0.00;0.00;;;;;;;;6181659;23;45255;-95
2022/09/19 02:42:56;;;;;;;;;0.00;0.00;;;;;;;;6180557;23;47258;-95
2022/09/19 02:45:37;;;;;;;;;0.00;0.00;;;;;;;;6180851;23;45404;-94
2022/09/19 02:48:15;;;;;;;;;0.00;0.00;;;;;;;;6181440;23;45377;-95
2022/09/19 02:50:59;;;;;;;;;0.00;0.00;;;;;;;;6181216;23;45561;-94
2022/09/19 02:53:26;;;;;;;;;0.00;0.00;;;;;;;;6156695;23;47066;-94
2022/09/19 02:55:56;;;;;;;;;0.00;0.00;;;;;;;;6181678;23;45670;-94
2022/09/19 02:58:22;;;;;;;;;0.00;0.00;;;;;;;;6187660;23;45634;-95
2022/09/19 03:00:51;;;;;;;;;0.00;0.00;;;;;;;;6190344;23;45485;-94
2022/09/19 03:06:05;;;;;;;;;0.00;0.00;;;;;;;;6192514;23;45246;-94
2022/09/19 03:08:36;;;;;;;;;0.00;0.00;;;;;;;;6190832;23;45457;-94
2022/09/19 03:11:06;;;;;;;;;0.00;0.00;;;;;;;;6190902;23;45280;-94
2022/09/19 03:13:33;;;;;;;;;0.00;0.00;;;;;;;;6189406;23;48192;-94
2022/09/19 03:16:02;;;;;;;;;0.00;0.00;;;;;;;;6189631;23;45760;-93
2022/09/19 03:18:28;;;;;;;;;0.00;0.00;;;;;;;;6182625;23;45629;-94
2022/09/19 03:20:55;;;;;;;;;0.00;0.00;;;;;;;;6183156;23;45393;-94
2022/09/19 03:23:26;;;;;;;;;0.00;0.00;;;;;;;;6180798;23;48320;-94
2022/09/19 03:25:51;;;;;;;;;0.00;0.00;;;;;;;;6181188;23;45302;-94
2022/09/19 03:28:19;;;;;;;;;0.00;0.00;;;;;;;;6180679;23;45319;-94
2022/09/19 03:30:45;;;;;;;;;0.00;0.00;;;;;;;;6180754;23;45520;-94
2022/09/19 03:33:11;;;;;;;;;0.00;0.00;;;;;;;;6156184;23;48000;-95
2022/09/19 03:35:38;;;;;;;;;0.00;0.00;;;;;;;;6181000;23;45625;-93
2022/09/19 03:38:03;;;;;;;;;0.00;0.00;;;;;;;;6181384;23;45287;-94
2022/09/19 03:40:28;;;;;;;;;0.00;0.00;;;;;;;;6181416;23;45547;-93
2022/09/19 03:42:53;;;;;;;;;0.00;0.00;;;;;;;;6180568;23;48140;-94
2022/09/19 03:45:18;;;;;;;;;0.00;0.00;;;;;;;;6180329;23;45502;-94
2022/09/19 03:47:44;;;;;;;;;0.00;0.00;;;;;;;;6180664;23;45583;-95
2022/09/19 03:50:09;;;;;;;;;0.00;0.00;;;;;;;;6181328;23;45318;-94
2022/09/19 03:52:34;;;;;;;;;0.00;0.00;;;;;;;;6181232;23;47235;-94
2022/09/19 03:55:00;;;;;;;;;0.00;0.00;;;;;;;;6180788;23;45324;-94
2022/09/19 03:57:25;;;;;;;;;0.00;0.00;;;;;;;;6181157;23;45220;-94
2022/09/19 03:59:50;;;;;;;;;0.00;0.00;;;;;;;;6181126;23;45299;-95
2022/09/19 04:02:16;;;;;;;;;0.00;0.00;;;;;;;;6181054;23;47172;-94
2022/09/19 04:04:41;;;;;;;;;0.00;0.00;;;;;;;;6180563;23;45590;-94
2022/09/19 04:07:06;;;;;;;;;0.00;0.00;;;;;;;;6180611;23;45715;-94
2022/09/19 04:09:31;;;;;;;;;0.00;0.00;;;;;;;;6181131;23;45311;-94
2022/09/19 04:11:57;;;;;;;;;0.00;0.00;;;;;;;;6180367;23;46949;-94
2022/09/19 04:14:23;;;;;;;;;0.00;0.00;;;;;;;;6180157;23;45366;-94
2022/09/19 04:16:49;;;;;;;;;0.00;0.00;;;;;;;;6185503;23;45319;-94
2022/09/19 04:19:14;;;;;;;;;0.00;0.00;;;;;;;;6182264;23;45691;-94
2022/09/19 04:21:41;;;;;;;;;0.00;0.00;;;;;;;;6181852;23;48235;-93
2022/09/19 04:24:07;;;;;;;;;0.00;0.00;;;;;;;;6178922;23;45378;-94
2022/09/19 04:26:32;;;;;;;;;0.00;0.00;;;;;;;;6188123;23;45446;-94
2022/09/19 04:28:57;;;;;;;;;0.00;0.00;;;;;;;;6188582;23;45401;-94
2022/09/19 04:31:26;;;;;;;;;0.00;0.00;;;;;;;;6188523;23;47118;-94
2022/09/19 04:33:54;;;;;;;;;0.00;0.00;;;;;;;;6186807;23;45337;-94
2022/09/19 04:36:20;;;;;;;;;0.00;0.00;;;;;;;;6187348;23;45374;-95
2022/09/19 04:38:46;;;;;;;;;0.00;0.00;;;;;;;;6162928;23;45593;-94
2022/09/19 04:41:12;;;;;;;;;0.00;0.00;;;;;;;;6161951;23;47717;-94
2022/09/19 04:43:38;;;;;;;;;0.00;0.00;;;;;;;;6185244;23;45445;-94
2022/09/19 04:46:04;;;;;;;;;0.00;0.00;;;;;;;;6180334;23;45384;-94
2022/09/19 04:48:30;;;;;;;;;0.00;0.00;;;;;;;;6153985;23;45628;-94
2022/09/19 04:50:56;;;;;;;;;0.00;0.00;;;;;;;;6155197;23;47799;-94
2022/09/19 04:53:23;;;;;;;;;0.00;0.00;;;;;;;;6178945;23;45628;-95
2022/09/19 04:55:51;;;;;;;;;0.00;0.00;;;;;;;;6178377;23;45362;-94
2022/09/19 04:58:17;;;;;;;;;0.00;0.00;;;;;;;;6179424;23;45214;-94
2022/09/19 05:00:45;;;;;;;;;0.00;0.00;;;;;;;;6180514;23;47888;-94
2022/09/19 05:03:15;;;;;;;;;0.00;0.00;;;;;;;;6180333;23;45311;-94
2022/09/19 05:05:44;;;;;;;;;10.00;10.00;;;;;;;;6180473;23;45531;-94
2022/09/19 05:08:15;;;;;;;;;0.00;0.00;;;;;;;;6180524;23;45627;-95
2022/09/19 05:10:40;;;;;;;;;0.00;0.00;;;;;;;;6179654;23;46906;-94
2022/09/19 05:13:06;;;;;;;;;0.00;0.00;;;;;;;;6179458;23;45419;-94
2022/09/19 05:15:31;;;;;;;;;0.00;0.00;;;;;;;;6180301;23;45542;-94
2022/09/19 05:17:56;;;;;;;;;0.00;0.00;;;;;;;;6180089;23;45580;-94
2022/09/19 05:20:25;;;;;;;;;0.00;0.00;;;;;;;;6179863;23;48173;-95
2022/09/19 05:22:52;;;;;;;;;0.00;0.00;;;;;;;;6121334;23;1359390;-95
2022/09/19 05:25:18;;;;;;;;;0.00;0.00;;;;;;;;6181780;23;45185;-94
2022/09/19 05:27:43;;;;;;;;;0.00;0.00;;;;;;;;6181913;23;45224;-94
2022/09/19 05:30:09;;;;;;;;;0.00;0.00;;;;;;;;6181148;23;47006;-94
2022/09/19 05:32:34;;;;;;;;;0.00;0.00;;;;;;;;6181348;23;45740;-94
2022/09/19 05:35:00;;;;;;;;;0.00;0.00;;;;;;;;6181687;23;45228;-94
2022/09/19 05:37:26;;;;;;;;;0.00;0.00;;;;;;;;6181474;23;45389;-94
2022/09/19 05:39:51;;;;;;;;;0.00;0.00;;;;;;;;6181983;23;47903;-94
2022/09/19 05:42:16;;;;;;;;;0.00;0.00;;;;;;;;6182036;23;45435;-95
2022/09/19 05:44:42;;;;;;;;;0.00;0.00;;;;;;;;6181685;23;45450;-94
2022/09/19 05:47:07;;;;;;;;;0.00;0.00;;;;;;;;6167256;22;44878;-96
2022/09/19 05:49:32;;;;;;;;;0.00;0.00;;;;;;;;6181056;23;47257;-94
2022/09/19 05:53:51;;;;;;;;;0.00;0.00;;;;;;;;6180113;23;45452;-91
2022/09/19 05:54:43;;;;;;;;;0.00;0.00;;;;;;;;6183853;23;45221;-92
2022/09/19 05:57:08;;;;;;;;;0.00;0.00;;;;;;;;6181892;23;45385;-91
2022/09/19 05:59:33;;;;;;;;;0.00;0.00;;;;;;;;6184223;23;46178;-90
2022/09/19 06:02:01;;;;;;;;;0.00;0.00;;;;;;;;6183192;23;45356;-92
2022/09/19 06:04:26;;;;;;;;;0.00;0.00;;;;;;;;6191518;23;45470;-91
2022/09/19 06:06:51;;;;;;;;;0.00;0.00;;;;;;;;6189757;23;45340;-91
2022/09/19 06:09:16;;;;;;;;;0.00;0.00;;;;;;;;6188857;23;48077;-92
2022/09/19 06:11:41;;;;;;;;;0.00;0.00;;;;;;;;6184586;23;45243;-91
2022/09/19 06:14:17;;;;;;;;;0.00;0.00;;;;;;;;6179797;23;45389;-92
2022/09/19 06:16:42;;;;;;;;;0.00;0.00;;;;;;;;6179544;23;45418;-91
2022/09/19 06:19:08;;;;;;;;;0.00;0.00;;;;;;;;6205039;22;48343;-92
2022/09/19 06:21:33;;;;;;;;;0.00;0.00;;;;;;;;6179417;23;45539;-91
2022/09/19 06:23:59;;;;;;;;;0.00;0.00;;;;;;;;6181687;23;45400;-92
2022/09/19 06:26:26;;;;;;;;;0.00;0.00;;;;;;;;6188847;23;45380;-94
2022/09/19 06:28:53;;;;;;;;;0.00;0.00;;;;;;;;6191536;22;48026;-94
2022/09/19 06:31:18;;;;;;;;;0.00;0.00;;;;;;;;6160835;23;45281;-96
2022/09/19 06:33:44;;;;;;;;;0.00;0.00;;;;;;;;6165347;23;45344;-96
2022/09/19 06:36:10;;;;;;;;;0.00;0.00;;;;;;;;6169817;23;45202;-96
2022/09/19 06:38:35;;;;;;;;;0.00;0.00;;;;;;;;6187170;23;46175;-92
2022/09/19 06:41:01;;;;;;;;;0.00;0.00;;;;;;;;6165153;23;45218;-96
2022/09/19 06:43:26;;;;;;;;;0.00;0.00;;;;;;;;6168342;23;45098;-96
2022/09/19 06:45:52;;;;;;;;;0.00;0.00;;;;;;;;6165008;23;45781;-96
2022/09/19 06:48:18;;;;;;;;;0.00;0.00;;;;;;;;6168628;23;46340;-96
2022/09/19 06:50:47;;;;;;;;;0.00;0.00;;;;;;;;6167437;23;45602;-96
2022/09/19 06:53:12;;;;;;;;;0.00;0.00;;;;;;;;6169872;23;45212;-96
2022/09/19 06:55:39;;;;;;;;;0.00;0.00;;;;;;;;6172775;23;45329;-96
2022/09/19 06:58:05;;;;;;;;;0.00;0.00;;;;;;;;6196473;23;47104;-96
2022/09/19 07:00:31;;;;;;;;;0.00;0.00;;;;;;;;6163281;23;45186;-95
2022/09/19 07:03:04;;;;;;;;;0.00;0.00;;;;;;;;6188503;23;45295;-96
2022/09/19 07:05:30;;;;;;;;;0.00;0.00;;;;;;;;6165811;23;45516;-96
2022/09/19 07:07:55;;;;;;;;;0.00;0.00;;;;;;;;6192877;23;45282;-96
2022/09/19 07:10:21;;;;;;;;;0.00;0.00;;;;;;;;6202782;23;45169;-96
2022/09/19 07:12:50;;;;;;;;;0.00;0.00;;;;;;;;6167436;23;45282;-96
2022/09/19 07:15:16;;;;;;;;;0.00;0.00;;;;;;;;6156687;23;45529;-95
2022/09/19 07:17:41;;;;;;;;;0.00;0.00;;;;;;;;6157116;23;46971;-94
2022/09/19 07:20:06;;;;;;;;;0.00;0.00;;;;;;;;6185357;23;45386;-95
2022/09/19 07:22:31;;;;;;;;;0.00;0.00;;;;;;;;6162503;23;45142;-95
2022/09/19 07:24:57;;;;;;;;;0.00;0.00;;;;;;;;6163132;23;45351;-94
2022/09/19 07:27:29;;;;;;;;;0.00;0.00;;;;;;;;6161575;23;47490;-96
2022/09/19 07:29:54;;;;;;;;;0.00;0.00;;;;;;;;6158043;23;45556;-95
2022/09/19 07:32:20;;;;;;;;;0.00;0.00;;;;;;;;6158493;23;45446;-93
2022/09/19 07:34:45;;;;;;;;;0.00;0.00;;;;;;;;6154802;23;45459;-95
2022/09/19 07:37:10;;;;;;;;;0.00;0.00;;;;;;;;6153685;23;48086;-96
2022/09/19 07:39:35;;;;;;;;;0.00;0.00;;;;;;;;6156009;23;45295;-95
2022/09/19 07:42:01;;;;;;;;;0.00;0.00;;;;;;;;6155905;23;45451;-95
2022/09/19 07:44:26;;;;;;;;;0.00;0.00;;;;;;;;6152728;23;45399;-94
2022/09/19 07:49:35;;;;;;;;;0.00;0.00;;;;;;;;6182575;23;45300;-94
2022/09/19 07:52:00;;;;;;;;;0.00;0.00;;;;;;;;6156298;23;45418;-96
2022/09/19 07:54:26;;;;;;;;;0.00;0.00;;;;;;;;6155788;23;45324;-95
2022/09/19 07:56:51;;;;;;;;;0.00;0.00;;;;;;;;6155654;23;47010;-95
2022/09/19 07:59:17;;;;;;;;;0.00;0.00;;;;;;;;6159991;22;46105;-96
2022/09/19 08:01:42;;;;;;;;;0.00;0.00;;;;;;;;6131383;23;45279;-95
2022/09/19 08:04:07;;;;;;;;;0.00;0.00;;;;;;;;6149495;23;45896;-95
2022/09/19 08:06:33;;;;;;;;;0.00;0.00;;;;;;;;6150851;23;48261;-94
2022/09/19 08:08:58;;;;;;;;;0.00;0.00;;;;;;;;6151306;23;45658;-95
2022/09/19 08:11:25;;;;;;;;;0.00;0.00;;;;;;;;6150753;23;45190;-95
2022/09/19 08:13:50;;;;;;;;;0.00;0.00;;;;;;;;6125550;23;45459;-96
2022/09/19 08:16:15;;;;;;;;;0.00;0.00;;;;;;;;6149409;23;47004;-96
2022/09/19 08:18:41;;;;;;;;;0.00;0.00;;;;;;;;6150634;23;45576;-96
2022/09/19 08:21:06;;;;;;;;;0.00;0.00;;;;;;;;6151507;23;45340;-96
2022/09/19 08:23:32;;;;;;;;;0.00;0.00;;;;;;;;6150894;23;45376;-93
2022/09/19 08:25:57;;;;;;;;;0.00;0.00;;;;;;;;6151221;23;47938;-94
2022/09/19 08:28:22;;;;;;;;;0.00;0.00;;;;;;;;6150872;23;45362;-94
2022/09/19 08:30:48;;;;;;;;;0.00;0.00;;;;;;;;6150475;23;45389;-94
2022/09/19 08:33:13;;;;;;;;;0.00;0.00;;;;;;;;6125902;23;45793;-94
2022/09/19 08:35:41;;;;;;;;;0.00;0.00;;;;;;;;6151606;23;47487;-94
2022/09/19 08:38:07;;;;;;;;;0.00;0.00;;;;;;;;6126703;23;46076;-94
2022/09/19 08:40:46;;;;;;;;;0.00;0.00;;;;;;;;6125490;23;45710;-95
2022/09/19 08:43:26;;;;;;;;;0.00;0.00;;;;;;;;6128439;23;45431;-94
2022/09/19 08:46:01;;;;;;;;;0.00;0.00;;;;;;;;6155180;23;47256;-94
2022/09/19 08:48:38;;;;;;;;;0.00;0.00;;;;;;;;6133997;23;45612;-92
2022/09/19 08:51:10;;;;;;;;;0.00;0.00;;;;;;;;6130012;23;45292;-93
2022/09/19 08:53:40;;;;;;;;;0.00;0.00;;;;;;;;6128629;23;45515;-93
2022/09/19 08:56:05;;;;;;;;;0.00;0.00;;;;;;;;6125468;23;47191;-93
2022/09/19 08:58:34;;;;;;;;;0.00;0.00;;;;;;;;6150023;23;45515;-92
2022/09/19 09:01:00;;;;;;;;;0.00;0.00;;;;;;;;6142294;23;45399;-92
2022/09/19 09:03:49;;;;;;;;;0.00;0.00;;;;;;;;6125219;23;45483;-91
2022/09/19 09:06:14;;;;;;;;;0.00;0.00;;;;;;;;6125179;23;47384;-90
2022/09/19 09:08:45;;;;;;;;;0.00;0.00;;;;;;;;6125817;23;46049;-93
2022/09/19 09:11:23;;;;;;;;;0.00;0.00;;;;;;;;6124879;23;45362;-91
2022/09/19 09:14:02;;;;;;;;;0.00;0.00;;;;;;;;6124221;23;45278;-93
2022/09/19 09:16:44;;;;;;;;;0.00;0.00;;;;;;;;6123538;23;47135;-88
2022/09/19 09:19:09;;;;;;;;;0.00;0.00;;;;;;;;6152076;23;45409;-91
2022/09/19 09:21:54;;;;;;;;;0.00;0.00;;;;;;;;6123713;23;45303;-91
2022/09/19 09:24:24;;;;;;;;;0.00;0.00;;;;;;;;6150754;23;45334;-93
2022/09/19 09:26:52;;;;;;;;;0.00;0.00;;;;;;;;6126612;23;47092;-92
2022/09/19 09:29:31;;;;;;;;;0.00;0.00;;;;;;;;6125139;23;45339;-91
2022/09/19 09:31:56;;;;;;;;;0.00;0.00;;;;;;;;6125562;23;45372;-94
2022/09/19 09:34:22;;;;;;;;;0.00;0.00;;;;;;;;6152299;23;45405;-91
2022/09/19 09:37:14;;;;;;;;;0.00;0.00;;;;;;;;6151596;23;46449;-91
2022/09/19 09:40:01;;;;;;;;;0.00;0.00;;;;;;;;6058430;23;45289;-91
2022/09/19 09:42:46;;;;;;;;;0.00;0.00;;;;;;;;6059690;23;45418;-90
2022/09/19 09:45:31;;;;;;;;;0.00;0.00;;;;;;;;6057411;23;45605;-92
2022/09/19 09:48:11;;;;;;;;;0.00;0.00;;;;;;;;6059744;23;46127;-92
2022/09/19 09:50:39;;;;;;;;;0.00;0.00;;;;;;;;6061010;23;45384;-92
2022/09/19 09:53:14;;;;;;;;;0.00;0.00;;;;;;;;6060380;23;45639;-92
2022/09/19 09:58:53;;;;;;;;;0.00;0.00;;;;;;;;6061767;23;45353;-92
2022/09/19 10:04:35;;;;;;;;;0.00;0.00;;;;;;;;6003473;23;45548;-91
2022/09/19 10:07:10;;;;;;;;;0.00;0.00;;;;;;;;6004234;23;45324;-91
2022/09/19 10:09:37;;;;;;;;;0.00;0.00;;;;;;;;6003853;23;47511;-95
2022/09/19 10:12:06;;;;;;;;;0.00;0.00;;;;;;;;6012157;23;45305;-90
2022/09/19 10:14:33;;;;;;;;;0.00;0.00;;;;;;;;6007515;23;45797;-92
2022/09/19 10:17:01;;;;;;;;;0.00;0.00;;;;;;;;6007399;23;45438;-91
2022/09/19 10:19:31;;;;;;;;;0.00;0.00;;;;;;;;6009399;23;47452;-90
2022/09/19 10:21:59;;;;;;;;;0.00;0.00;;;;;;;;6003736;23;45385;-90
2022/09/19 10:24:45;;;;;;;;;0.00;0.00;;;;;;;;6004687;23;45423;-92
2022/09/19 10:27:35;;;;;;;;;0.00;0.00;;;;;;;;6002190;23;45674;-92
2022/09/19 10:30:14;;;;;;;;;0.00;0.00;;;;;;;;6002091;23;46263;-92
2022/09/19 10:32:39;;;;;;;;;0.00;0.00;;;;;;;;6003342;23;45527;-91
2022/09/19 10:35:31;;;;;;;;;0.00;0.00;;;;;;;;6005407;23;45193;-90
2022/09/19 10:38:15;;;;;;;;;0.00;0.00;;;;;;;;6003886;23;45398;-92
2022/09/19 10:40:56;;;;;;;;;0.00;0.00;;;;;;;;6077624;23;46339;-91
2022/09/19 10:43:22;;;;;;;;;0.00;0.00;;;;;;;;6159242;23;45319;-94
2022/09/19 10:45:48;;;;;;;;;0.00;0.00;;;;;;;;6155384;23;45415;-93
2022/09/19 10:48:19;;;;;;;;;0.00;0.00;;;;;;;;6152765;23;45729;-93
2022/09/19 10:50:47;;;;;;;;;0.00;0.00;;;;;;;;6150552;23;47121;-95
2022/09/19 10:53:22;;;;;;;;;0.00;0.00;;;;;;;;6123670;23;45811;-96
2022/09/19 10:55:48;;;;;;;;;0.00;0.00;;;;;;;;6126328;23;45534;-95
2022/09/19 10:58:26;;;;;;;;;0.00;0.00;;;;;;;;6127095;23;45424;-96
2022/09/19 11:00:57;;;;;;;;;0.00;0.00;;;;;;;;6137240;23;47965;-94
2022/09/19 11:03:30;;;;;;;;;0.00;0.00;;;;;;;;6130440;23;45990;-96
2022/09/19 11:06:10;;;;;;;;;0.00;0.00;;;;;;;;6127094;23;45280;-96
2022/09/19 11:08:44;;;;;;;;;0.00;0.00;;;;;;;;6126969;23;45388;-96
2022/09/19 11:11:25;;;;;;;;;0.00;0.00;;;;;;;;6126128;23;48097;-95
2022/09/19 11:14:11;;;;;;;;;0.00;0.00;;;;;;;;6126969;23;45332;-96
2022/09/19 11:17:00;;;;;;;;;0.00;0.00;;;;;;;;6125128;23;45189;-95
2022/09/19 11:19:36;;;;;;;;;0.00;0.00;;;;;;;;6132594;23;45429;-95
2022/09/19 11:22:01;;;;;;;;;0.00;0.00;;;;;;;;6133948;23;47110;-96
2022/09/19 11:24:40;;;;;;;;;0.00;0.00;;;;;;;;6159591;23;45912;-96
2022/09/19 11:27:27;;;;;;;;;0.00;0.00;;;;;;;;6134734;23;45261;-96
2022/09/19 11:29:59;;;;;;;;;0.00;0.00;;;;;;;;6135703;23;45465;-96
2022/09/19 11:32:24;;;;;;;;;0.00;0.00;;;;;;;;6158957;23;47337;-95
2022/09/19 11:35:00;;;;;;;;;0.00;0.00;;;;;;;;6161020;23;45773;-95
2022/09/19 11:37:44;;;;;;;;;0.00;0.00;;;;;;;;6129993;23;45788;-95
2022/09/19 11:40:28;;;;;;;;;0.00;0.00;;;;;;;;6128077;23;45232;-96
2022/09/19 11:43:12;;;;;;;;;0.00;0.00;;;;;;;;6125598;23;47006;-96
2022/09/19 11:46:07;;;;;;;;;0.00;0.00;;;;;;;;6151613;23;45851;-95
2022/09/19 11:48:44;;;;;;;;;0.00;0.00;;;;;;;;6117316;23;45395;-96
2022/09/19 11:51:09;;;;;;;;;0.00;0.00;;;;;;;;6151247;23;45276;-96
2022/09/19 11:54:02;;;;;;;;;0.00;0.00;;;;;;;;6150028;23;47844;-96
2022/09/19 11:56:35;;;;;;;;;0.00;0.00;;;;;;;;6125549;23;45347;-96
2022/09/19 11:59:20;;;;;;;;;0.00;0.00;;;;;;;;6150139;23;45340;-95
2022/09/19 12:02:06;;;;;;;;;0.00;0.00;;;;;;;;6126393;23;45205;-96
2022/09/19 12:04:34;;;;;;;;;0.00;0.00;;;;;;;;6124653;23;47228;-95
2022/09/19 12:07:08;;;;;;;;;0.00;0.00;;;;;;;;6149849;23;45946;-96
2022/09/19 12:09:44;;;;;;;;;0.00;0.00;;;;;;;;6125989;23;45219;-95
2022/09/19 12:12:16;;;;;;;;;0.00;0.00;;;;;;;;6125872;23;45269;-95
2022/09/19 12:14:49;;;;;;;;;0.00;0.00;;;;;;;;6126602;23;47261;-95
2022/09/19 12:17:27;;;;;;;;;0.00;0.00;;;;;;;;6127446;23;45611;-96
2022/09/19 12:20:14;;;;;;;;;0.00;0.00;;;;;;;;6128673;23;45679;-95
2022/09/19 12:22:46;;;;;;;;;0.00;0.00;;;;;;;;6153770;23;45321;-95
2022/09/19 12:25:20;;;;;;;;;0.00;0.00;;;;;;;;6124500;23;48090;-94
2022/09/19 12:28:05;;;;;;;;;0.00;0.00;;;;;;;;6125856;23;45455;-96
2022/09/19 12:30:40;;;;;;;;;0.00;0.00;;;;;;;;6126811;23;45386;-95
2022/09/19 12:33:14;;;;;;;;;0.00;0.00;;;;;;;;6152748;23;45306;-95
2022/09/19 12:35:44;;;;;;;;;0.00;0.00;;;;;;;;6123900;23;47194;-96
2022/09/19 12:38:28;;;;;;;;;0.00;0.00;;;;;;;;6124222;23;45986;-96
2022/09/19 12:41:00;;;;;;;;;0.00;0.00;;;;;;;;6127324;23;45281;-95
2022/09/19 12:43:38;;;;;;;;;0.00;0.00;;;;;;;;6126560;23;45422;-96
2022/09/19 12:46:10;;;;;;;;;0.00;0.00;;;;;;;;6129979;23;47430;-95
2022/09/19 12:48:39;;;;;;;;;0.00;0.00;;;;;;;;6154954;23;45775;-95
2022/09/19 12:51:07;;;;;;;;;0.00;0.00;;;;;;;;6132795;23;45414;-96
2022/09/19 12:53:33;;;;;;;;;0.00;0.00;;;;;;;;6133636;23;45352;-96
2022/09/19 12:56:15;;;;;;;;;0.00;0.00;;;;;;;;6158411;23;48049;-95
2022/09/19 12:58:57;;;;;;;;;0.00;0.00;;;;;;;;6131700;23;45340;-96
2022/09/19 13:01:25;;;;;;;;;0.00;0.00;;;;;;;;6155242;23;45414;-96
2022/09/19 13:04:13;;;;;;;;;0.00;0.00;;;;;;;;6130482;23;45668;-96
2022/09/19 13:06:41;;;;;;;;;0.00;0.00;;;;;;;;6125419;23;47952;-96
2022/09/19 13:09:26;;;;;;;;;0.00;0.00;;;;;;;;6125572;23;45352;-96
2022/09/19 13:11:54;;;;;;;;;0.00;0.00;;;;;;;;6126101;23;45342;-95
2022/09/19 13:14:30;;;;;;;;;0.00;0.00;;;;;;;;6124789;23;45253;-96
2022/09/19 13:25:14;;;;;;;;;0.00;0.00;;;;;;;;6151425;23;45267;-94
2022/09/19 13:27:42;;;;;;;;;0.00;0.00;;;;;;;;6125471;23;47619;-96
2022/09/19 13:30:28;;;;;;;;;0.00;0.00;;;;;;;;6126653;23;46101;-96
2022/09/19 13:32:54;;;;;;;;;0.00;0.00;;;;;;;;6124640;23;45420;-96
2022/09/19 13:35:22;;;;;;;;;0.00;0.00;;;;;;;;6126129;23;45217;-96
2022/09/19 13:37:50;;;;;;;;;0.00;0.00;;;;;;;;6127318;23;47159;-96
2022/09/19 13:40:27;;;;;;;;;0.00;0.00;;;;;;;;6127824;23;45650;-96
2022/09/19 13:42:52;;;;;;;;;0.00;0.00;;;;;;;;6154213;23;45254;-96
2022/09/19 13:45:30;;;;;;;;;0.00;0.00;;;;;;;;6151598;23;45300;-96
2022/09/19 13:48:02;;;;;;;;;0.00;0.00;;;;;;;;6121285;23;47328;-95
2022/09/19 13:50:47;;;;;;;;;0.00;0.00;;;;;;;;6124919;23;45345;-96
2022/09/19 13:53:28;;;;;;;;;0.00;0.00;;;;;;;;6123764;23;45254;-96
2022/09/19 13:56:00;;;;;;;;;0.00;0.00;;;;;;;;6126215;23;45650;-96
2022/09/19 13:58:31;;;;;;;;;0.00;0.00;;;;;;;;6117391;23;46964;-96
2022/09/19 14:01:13;;;;;;;;;0.00;0.00;;;;;;;;6141994;23;45370;-95
2022/09/19 14:03:52;;;;;;;;;0.00;0.00;;;;;;;;6123547;23;45784;-96
2022/09/19 14:06:22;;;;;;;;;0.00;0.00;;;;;;;;6126105;23;45280;-96
2022/09/19 14:09:06;;;;;;;;;0.00;0.00;;;;;;;;6126124;23;47085;-92
2022/09/19 14:11:31;;;;;;;;;0.00;0.00;;;;;;;;6151714;23;45267;-91
2022/09/19 14:13:56;;;;;;;;;0.00;0.00;;;;;;;;6128359;23;45977;-94
2022/09/19 14:16:36;;;;;;;;;0.00;0.00;;;;;;;;6124252;23;45319;-90
2022/09/19 14:19:22;;;;;;;;;0.00;0.00;;;;;;;;6157554;23;45510;-95
2022/09/19 14:21:54;;;;;;;;;0.00;0.00;;;;;;;;6179976;23;45165;-96
2022/09/19 14:24:33;;;;;;;;;0.00;0.00;;;;;;;;6168851;23;45238;-96
2022/09/19 14:27:13;;;;;;;;;0.00;0.00;;;;;;;;6161946;23;45658;-95
2022/09/19 14:30:08;;;;;;;;;0.00;0.00;;;;;;;;6184184;23;47300;-95
2022/09/19 14:32:54;;;;;;;;;0.00;0.00;;;;;;;;6156421;23;45482;-96
2022/09/19 14:35:22;;;;;;;;;0.00;0.00;;;;;;;;6178544;23;45323;-96
2022/09/19 14:37:48;;;;;;;;;0.00;0.00;;;;;;;;6180148;23;45275;-96
2022/09/19 14:40:24;;;;;;;;;0.00;0.00;;;;;;;;6179425;23;47150;-96
2022/09/19 14:43:10;;;;;;;;;0.00;0.00;;;;;;;;6180422;23;45586;-96
2022/09/19 14:45:56;;;;;;;;;0.00;0.00;;;;;;;;6180316;23;45225;-96
2022/09/19 14:48:35;;;;;;;;;0.00;0.00;;;;;;;;6180326;23;45563;-96
2022/09/19 14:51:16;;;;;;;;;0.00;0.00;;;;;;;;6155133;23;47395;-96
2022/09/19 14:53:41;;;;;;;;;0.00;0.00;;;;;;;;6155038;23;45249;-95
2022/09/19 14:56:10;;;;;;;;;0.00;0.00;;;;;;;;6155535;23;45237;-96
2022/09/19 14:58:36;;;;;;;;;0.00;0.00;;;;;;;;6155225;23;45387;-96
2022/09/19 15:01:13;;;;;;;;;0.00;0.00;;;;;;;;6154010;23;47368;-96
2022/09/19 15:03:44;;;;;;;;;0.00;0.00;;;;;;;;6158099;23;45401;-96
2022/09/19 15:06:31;;;;;;;;;0.00;0.00;;;;;;;;6162771;23;45853;-96
2022/09/19 15:09:15;;;;;;;;;0.00;0.00;;;;;;;;6186611;23;45347;-96
2022/09/19 15:11:48;;;;;;;;;0.00;0.00;;;;;;;;6193366;23;46028;-97
2022/09/19 15:14:15;;;;;;;;;0.00;0.00;;;;;;;;6170898;23;45366;-95
2022/09/19 15:16:42;;;;;;;;;0.00;0.00;;;;;;;;6164354;23;45403;-96
2022/09/19 15:19:08;;;;;;;;;0.00;0.00;;;;;;;;6189495;23;44858;-95
2022/09/19 15:21:35;;;;;;;;;0.00;0.00;;;;;;;;6164127;23;47109;-96
2022/09/19 15:24:02;;;;;;;;;0.00;0.00;;;;;;;;6163337;23;45671;-95
2022/09/19 15:26:34;;;;;;;;;0.00;0.00;;;;;;;;6194913;22;45390;-96
2022/09/19 15:29:01;;;;;;;;;0.00;0.00;;;;;;;;6163291;23;45399;-96
2022/09/19 15:31:48;;;;;;;;;0.00;0.00;;;;;;;;6167797;23;46976;-96